createdAt,value
2018-09-02T00:01:46.273Z,102634.30
2018-09-02T00:04:13.172Z,102622.38
2018-09-02T00:06:40.053Z,102635.60
2018-09-02T00:09:06.996Z,102632.30
2018-09-02T00:11:33.926Z,102637.17
2018-09-02T00:14:00.840Z,102629.71
2018-09-02T00:16:27.738Z,102624.26
2018-09-02T00:18:54.636Z,102628.48
2018-09-02T00:21:21.540Z,102632.13
2018-09-02T00:23:48.473Z,102633.30
2018-09-02T00:26:15.374Z,102631.60
2018-09-02T00:28:42.293Z,102638.89
2018-09-02T00:31:09.214Z,102641.52
2018-09-02T00:33:36.104Z,102637.13
2018-09-02T00:36:02.988Z,102639.25
2018-09-02T00:38:29.892Z,102637.37
2018-09-02T00:40:56.823Z,102630.61
2018-09-02T00:43:23.708Z,102629.56
2018-09-02T00:45:50.645Z,102635.91
2018-09-02T00:48:17.538Z,102633.16
2018-09-02T00:50:44.480Z,102640.83
2018-09-02T00:53:11.397Z,102638.66
2018-09-02T00:55:38.310Z,102637.78
2018-09-02T00:58:05.216Z,102642.29
2018-09-02T01:00:32.165Z,102634.08
2018-09-02T01:02:59.057Z,102640.02
2018-09-02T01:05:25.996Z,102636.42
2018-09-02T01:07:54.264Z,102630.84
2018-09-02T01:10:21.168Z,102633.70
2018-09-02T01:12:48.057Z,102640.20
2018-09-02T01:15:14.994Z,102635.34
2018-09-02T01:17:41.895Z,102639.69
2018-09-02T01:20:08.813Z,102639.85
2018-09-02T01:22:35.715Z,102640.44
2018-09-02T01:25:02.651Z,102634.30
2018-09-02T01:27:29.551Z,102637.48
2018-09-02T01:29:56.457Z,102640.16
2018-09-02T01:32:23.421Z,102644.88
2018-09-02T01:34:50.330Z,102642.53
2018-09-02T01:37:17.268Z,102639.80
2018-09-02T01:39:44.197Z,102647.23
2018-09-02T01:42:11.080Z,102645.20
2018-09-02T01:44:38.085Z,102650.13
2018-09-02T01:47:04.989Z,102656.48
2018-09-02T01:49:31.954Z,102662.52
2018-09-02T01:51:58.872Z,102659.47
2018-09-02T01:54:25.756Z,102659.89
2018-09-02T01:56:52.647Z,102662.08
2018-09-02T01:59:19.524Z,102657.83
2018-09-02T02:01:46.417Z,102660.18
2018-09-02T02:04:13.306Z,102653.37
2018-09-02T02:06:40.217Z,102651.95
2018-09-02T02:09:08.093Z,102649.86
2018-09-02T02:11:35.032Z,102653.48
2018-09-02T02:14:01.916Z,102647.70
2018-09-02T02:16:28.811Z,102648.69
2018-09-02T02:18:55.697Z,102644.36
2018-09-02T02:21:22.592Z,102651.23
2018-09-02T02:23:49.553Z,102655.20
2018-09-02T02:26:16.460Z,102660.20
2018-09-02T02:28:43.346Z,102661.72
2018-09-02T02:31:10.244Z,102665.05
2018-09-02T02:33:37.177Z,102656.45
2018-09-02T02:36:04.073Z,102660.14
2018-09-02T02:38:30.964Z,102659.66
2018-09-02T02:40:57.880Z,102657.72
2018-09-02T02:43:24.770Z,102655.98
2018-09-02T02:45:51.672Z,102651.50
2018-09-02T02:48:18.560Z,102648.05
2018-09-02T02:50:45.485Z,102640.09
2018-09-02T02:53:12.375Z,102642.58
2018-09-02T02:55:39.269Z,102647.97
2018-09-02T02:58:06.177Z,102646.91
2018-09-02T03:00:33.080Z,102648.17
2018-09-02T03:02:59.973Z,102648.17
2018-09-02T03:05:26.914Z,102653.80
2018-09-02T03:07:53.841Z,102646.28
2018-09-02T03:10:20.728Z,102651.03
2018-09-02T03:12:47.680Z,102649.41
2018-09-02T03:15:14.914Z,102648.06
2018-09-02T03:17:41.809Z,102640.33
2018-09-02T03:20:08.710Z,102641.47
2018-09-02T03:22:35.629Z,102645.29
2018-09-02T03:25:02.585Z,102648.62
2018-09-02T03:27:29.501Z,102647.70
2018-09-02T03:29:56.436Z,102648.14
2018-09-02T03:32:23.422Z,102643.03
2018-09-02T03:34:50.364Z,102645.67
2018-09-02T03:37:17.284Z,102640.28
2018-09-02T03:39:44.204Z,102643.61
2018-09-02T03:42:11.145Z,102640.71
2018-09-02T03:44:38.125Z,102638.50
2018-09-02T03:47:05.148Z,102642.34
2018-09-02T03:49:32.077Z,102648.20
2018-09-02T03:51:59.018Z,102645.94
2018-09-02T03:54:25.936Z,102647.36
2018-09-02T03:56:52.890Z,102649.41
2018-09-02T03:59:19.925Z,102646.63
2018-09-02T04:01:46.842Z,102644.97
2018-09-02T04:04:13.773Z,102644.97
2018-09-02T04:06:40.708Z,102649.48
2018-09-02T04:09:08.882Z,102648.98
2018-09-02T04:11:35.861Z,102653.17
2018-09-02T04:14:02.804Z,102650.87
2018-09-02T04:16:29.721Z,102654.35
2018-09-02T04:18:56.668Z,102648.09
2018-09-02T04:21:23.590Z,102649.44
2018-09-02T04:23:50.493Z,102650.22
2018-09-02T04:26:17.388Z,102650.22
2018-09-02T04:28:44.284Z,102639.59
2018-09-02T04:31:11.194Z,102650.22
2018-09-02T04:33:38.201Z,102649.38
2018-09-02T04:36:05.024Z,102650.22
2018-09-02T04:38:31.912Z,102647.53
2018-09-02T04:40:58.797Z,102648.52
2018-09-02T04:43:25.696Z,102645.05
2018-09-02T04:45:52.589Z,102650.66
2018-09-02T04:48:19.505Z,102649.80
2018-09-02T04:50:46.404Z,102649.16
2018-09-02T04:53:13.311Z,102643.59
2018-09-02T04:55:40.190Z,102648.77
2018-09-02T04:58:07.076Z,102646.52
2018-09-02T05:00:33.961Z,102646.64
2018-09-02T05:03:00.861Z,102641.97
2018-09-02T05:05:27.753Z,102645.51
2018-09-02T05:07:54.627Z,102641.47
2018-09-02T05:10:21.511Z,102647.14
2018-09-02T05:12:48.456Z,102643.19
2018-09-02T05:15:15.340Z,102631.77
2018-09-02T05:17:42.304Z,102633.23
2018-09-02T05:20:09.193Z,102639.09
2018-09-02T05:22:36.117Z,102637.66
2018-09-02T05:25:03.077Z,102641.59
2018-09-02T05:27:29.995Z,102642.58
2018-09-02T05:29:56.872Z,102643.41
2018-09-02T05:32:23.773Z,102646.11
2018-09-02T05:34:50.662Z,102653.08
2018-09-02T05:37:17.646Z,102656.53
2018-09-02T05:39:44.540Z,102660.05
2018-09-02T05:42:11.475Z,102663.09
2018-09-02T05:44:38.444Z,102662.27
2018-09-02T05:47:05.449Z,102659.73
2018-09-02T05:49:32.350Z,102657.99
2018-09-02T05:51:59.236Z,102653.23
2018-09-02T05:54:26.195Z,102659.48
2018-09-02T05:56:53.069Z,102661.73
2018-09-02T05:59:19.998Z,102665.14
2018-09-02T06:01:46.873Z,102661.15
2018-09-02T06:04:13.775Z,102658.61
2018-09-02T06:06:40.657Z,102664.66
2018-09-02T06:09:14.356Z,102661.39
2018-09-02T06:11:41.213Z,102652.34
2018-09-02T06:14:08.137Z,102651.73
2018-09-02T06:16:35.026Z,102658.60
2018-09-02T06:19:01.918Z,102656.66
2018-09-02T06:21:29.240Z,102659.99
2018-09-02T06:23:56.168Z,102660.11
2018-09-02T06:26:23.191Z,102654.22
2018-09-02T06:28:50.168Z,102655.07
2018-09-02T06:31:17.088Z,102648.16
2018-09-02T06:33:44.012Z,102655.25
2018-09-02T06:36:10.933Z,102648.33
2018-09-02T06:38:37.819Z,102656.96
2018-09-02T06:41:05.029Z,102658.84
2018-09-02T06:43:31.938Z,102661.74
2018-09-02T06:45:58.844Z,102660.87
2018-09-02T06:48:25.806Z,102652.67
2018-09-02T06:50:52.712Z,102653.84
2018-09-02T06:53:19.636Z,102652.44
2018-09-02T06:55:46.541Z,102656.32
2018-09-02T06:58:13.473Z,102653.74
2018-09-02T07:00:40.705Z,102650.23
2018-09-02T07:03:07.685Z,102646.08
2018-09-02T07:05:39.453Z,102650.95
2018-09-02T07:08:07.077Z,102650.73
2018-09-02T07:10:33.992Z,102653.70
2018-09-02T07:13:00.921Z,102650.14
2018-09-02T07:15:27.838Z,102653.59
2018-09-02T07:17:54.736Z,102652.70
2018-09-02T07:20:21.658Z,102649.15
2018-09-02T07:22:48.737Z,102649.92
2018-09-02T07:25:15.656Z,102656.25
2018-09-02T07:27:42.557Z,102648.36
2018-09-02T07:30:09.476Z,102649.92
2018-09-02T07:32:36.385Z,102651.24
2018-09-02T07:35:03.344Z,102605.58
2018-09-02T07:37:30.252Z,102649.21
2018-09-02T07:39:57.201Z,102646.41
2018-09-02T07:42:24.116Z,102648.78
2018-09-02T07:44:51.067Z,102642.66
2018-09-02T07:47:20.132Z,102648.36
2018-09-02T07:49:48.795Z,102649.10
2018-09-02T07:52:17.657Z,102654.31
2018-09-02T07:54:46.511Z,102652.87
2018-09-02T07:57:13.423Z,102654.24
2018-09-02T07:59:40.353Z,102650.39
2018-09-02T08:02:07.260Z,102652.84
2018-09-02T08:04:34.209Z,102654.70
2018-09-02T08:07:01.148Z,102657.55
2018-09-02T08:09:28.601Z,102655.79
2018-09-02T08:11:55.540Z,102655.53
2018-09-02T08:14:22.443Z,102650.78
2018-09-02T08:16:49.373Z,102648.55
2018-09-02T08:19:16.289Z,102647.36
2018-09-02T08:21:43.213Z,102657.15
2018-09-02T08:24:10.093Z,102651.91
2018-09-02T08:26:37.024Z,102646.91
2018-09-02T08:29:03.892Z,102653.45
2018-09-02T08:31:30.824Z,102646.59
2018-09-02T08:33:57.713Z,102643.67
2018-09-02T08:36:24.619Z,102652.47
2018-09-02T08:38:51.548Z,102657.05
2018-09-02T08:41:18.405Z,102653.56
2018-09-02T08:43:45.305Z,102647.31
2018-09-02T08:46:12.184Z,102646.63
2018-09-02T08:48:39.154Z,102645.96
2018-09-02T08:51:06.106Z,102637.01
2018-09-02T08:53:32.976Z,102629.34
2018-09-02T08:55:59.944Z,102624.79
2018-09-02T08:58:26.809Z,102636.73
2018-09-02T09:00:53.698Z,102631.22
2018-09-02T09:03:20.613Z,102622.30
2018-09-02T09:05:47.509Z,102620.67
2018-09-02T09:08:14.713Z,102621.48
2018-09-02T09:10:41.456Z,102618.13
2018-09-02T09:13:08.353Z,102617.33
2018-09-02T09:15:35.264Z,102613.53
2018-09-02T09:18:02.496Z,102610.08
2018-09-02T09:20:29.405Z,102609.08
2018-09-02T09:22:56.293Z,102623.05
2018-09-02T09:25:23.172Z,102613.92
2018-09-02T09:27:50.110Z,102616.20
2018-09-02T09:30:16.993Z,102623.58
2018-09-02T09:32:43.972Z,102618.11
2018-09-02T09:35:10.852Z,102612.72
2018-09-02T09:37:37.749Z,102612.53
2018-09-02T09:40:05.142Z,102614.00
2018-09-02T09:42:32.105Z,102607.64
2018-09-02T09:44:59.229Z,102614.44
2018-09-02T09:47:26.145Z,102610.55
2018-09-02T09:49:53.041Z,102619.90
2018-09-02T09:52:19.977Z,102616.47
2018-09-02T09:54:46.844Z,102613.67
2018-09-02T09:57:13.725Z,102615.75
2018-09-02T09:59:41.105Z,102617.28
2018-09-02T10:02:08.176Z,102608.12
2018-09-02T10:04:35.057Z,102606.39
2018-09-02T10:07:01.969Z,102604.84
2018-09-02T10:09:28.948Z,102596.66
2018-09-02T10:11:55.917Z,102601.47
2018-09-02T10:14:22.717Z,102600.02
2018-09-02T10:16:49.670Z,102591.28
2018-09-02T10:19:16.591Z,102591.70
2018-09-02T10:21:45.330Z,102593.79
2018-09-02T10:24:15.024Z,102595.73
2018-09-02T10:26:42.264Z,102592.59
2018-09-02T10:29:09.829Z,102588.43
2018-09-02T10:31:37.349Z,102589.84
2018-09-02T10:34:04.767Z,102586.56
2018-09-02T10:36:32.734Z,102572.86
2018-09-02T10:39:00.326Z,102581.38
2018-09-02T10:41:28.100Z,102577.17
2018-09-02T10:43:55.467Z,102572.39
2018-09-02T10:46:23.199Z,102565.71
2018-09-02T10:48:51.832Z,102560.23
2018-09-02T10:51:19.156Z,102554.63
2018-09-02T10:53:46.512Z,102565.48
2018-09-02T10:56:14.815Z,102559.50
2018-09-02T10:58:43.265Z,102549.16
2018-09-02T11:01:10.173Z,102551.52
2018-09-02T11:03:37.069Z,102554.84
2018-09-02T11:06:05.088Z,102550.52
2018-09-02T11:08:32.058Z,102548.46
2018-09-02T11:10:59.401Z,102552.97
2018-09-02T11:13:26.369Z,102552.52
2018-09-02T11:15:53.308Z,102553.09
2018-09-02T11:18:20.403Z,102558.13
2018-09-02T11:20:47.324Z,102549.29
2018-09-02T11:23:14.481Z,102549.33
2018-09-02T11:25:41.437Z,102546.29
2018-09-02T11:28:08.377Z,102534.86
2018-09-02T11:30:35.269Z,102539.22
2018-09-02T11:33:02.498Z,102539.84
2018-09-02T11:35:29.397Z,102542.98
2018-09-02T11:37:56.487Z,102533.48
2018-09-02T11:40:23.499Z,102523.22
2018-09-02T11:42:50.401Z,102516.87
2018-09-02T11:45:17.796Z,102523.70
2018-09-02T11:47:45.805Z,102516.12
2018-09-02T11:50:13.020Z,102516.95
2018-09-02T11:52:39.944Z,102514.64
2018-09-02T11:55:07.155Z,102514.91
2018-09-02T11:57:34.372Z,102506.34
2018-09-02T12:00:01.565Z,102498.24
2018-09-02T12:02:28.614Z,102497.50
2018-09-02T12:04:55.841Z,102500.92
2018-09-02T12:07:22.624Z,102495.55
2018-09-02T12:09:49.565Z,102498.50
2018-09-02T12:12:16.738Z,102496.11
2018-09-02T12:14:43.596Z,102494.86
2018-09-02T12:17:10.461Z,102500.16
2018-09-02T12:19:37.346Z,102496.62
2018-09-02T12:22:04.692Z,102493.81
2018-09-02T12:24:31.603Z,102492.10
2018-09-02T12:26:58.496Z,102491.51
2018-09-02T12:29:25.401Z,102492.02
2018-09-02T12:31:52.305Z,102489.11
2018-09-02T12:34:19.210Z,102486.25
2018-09-02T12:36:46.105Z,102487.06
2018-09-02T12:39:13.152Z,102481.81
2018-09-02T12:41:40.074Z,102478.11
2018-09-02T12:44:06.985Z,102477.03
2018-09-02T12:46:34.311Z,102482.97
2018-09-02T12:49:01.207Z,102478.45
2018-09-02T12:51:28.142Z,102479.16
2018-09-02T12:53:55.067Z,102481.34
2018-09-02T12:56:21.971Z,102476.91
2018-09-02T12:58:48.859Z,102478.31
2018-09-02T13:01:16.183Z,102472.61
2018-09-02T13:03:43.025Z,102468.34
2018-09-02T13:06:10.914Z,102469.16
2018-09-02T13:08:44.583Z,102460.49
2018-09-02T13:11:11.490Z,102461.12
2018-09-02T13:13:38.383Z,102457.88
2018-09-02T13:16:05.305Z,102454.27
2018-09-02T13:18:32.396Z,102455.55
2018-09-02T13:20:59.384Z,102462.72
2018-09-02T13:23:26.420Z,102461.14
2018-09-02T13:25:53.376Z,102450.63
2018-09-02T13:28:20.273Z,102460.20
2018-09-02T13:30:47.222Z,102450.10
2018-09-02T13:33:14.730Z,102446.98
2018-09-02T13:35:41.709Z,102448.39
2018-09-02T13:38:08.609Z,102448.70
2018-09-02T13:40:35.523Z,102434.59
2018-09-02T13:43:02.489Z,102427.88
2018-09-02T13:45:29.408Z,102424.19
2018-09-02T13:47:56.305Z,102429.64
2018-09-02T13:50:23.282Z,102425.04
2018-09-02T13:52:50.118Z,102414.12
2018-09-02T13:55:17.006Z,102422.45
2018-09-02T13:57:43.896Z,102418.70
2018-09-02T14:00:10.806Z,102419.44
2018-09-02T14:02:37.717Z,102417.23
2018-09-02T14:05:04.660Z,102414.43
2018-09-02T14:07:31.628Z,102416.30
2018-09-02T14:09:58.591Z,102410.04
2018-09-02T14:12:25.883Z,102406.92
2018-09-02T14:14:52.802Z,102405.53
2018-09-02T14:17:19.752Z,102408.68
2018-09-02T14:19:46.690Z,102396.70
2018-09-02T14:22:13.575Z,102394.19
2018-09-02T14:24:40.473Z,102394.38
2018-09-02T14:27:07.384Z,102390.23
2018-09-02T14:29:34.297Z,102393.16
2018-09-02T14:32:03.318Z,102393.47
2018-09-02T14:34:32.618Z,102387.28
2018-09-02T14:37:01.070Z,102389.44
2018-09-02T14:39:29.012Z,102374.02
2018-09-02T14:41:57.909Z,102371.47
2018-09-02T14:44:26.852Z,102378.95
2018-09-02T14:46:55.830Z,102368.84
2018-09-02T14:49:24.288Z,102376.99
2018-09-02T14:51:53.085Z,102375.64
2018-09-02T14:54:20.091Z,102375.13
2018-09-02T14:56:47.025Z,102375.78
2018-09-02T14:59:13.915Z,102369.73
2018-09-02T15:01:40.828Z,102367.47
2018-09-02T15:04:07.729Z,102364.88
2018-09-02T15:06:34.672Z,102366.97
2018-09-02T15:09:01.603Z,102366.47
2018-09-02T15:11:28.556Z,102363.72
2018-09-02T15:13:55.405Z,102359.20
2018-09-02T15:16:22.316Z,102350.85
2018-09-02T15:18:49.282Z,102347.77
2018-09-02T15:21:16.201Z,102339.04
2018-09-02T15:23:43.085Z,102337.44
2018-09-02T15:26:10.005Z,102330.52
2018-09-02T15:28:36.922Z,102338.63
2018-09-02T15:31:04.061Z,102340.05
2018-09-02T15:33:30.986Z,102333.94
2018-09-02T15:35:57.880Z,102334.19
2018-09-02T15:38:24.793Z,102327.32
2018-09-02T15:40:51.696Z,102335.78
2018-09-02T15:43:18.606Z,102319.29
2018-09-02T15:45:45.577Z,102325.75
2018-09-02T15:48:12.517Z,102314.75
2018-09-02T15:50:39.412Z,102316.19
2018-09-02T15:53:06.367Z,102321.27
2018-09-02T15:55:33.294Z,102319.38
2018-09-02T15:58:00.255Z,102321.62
2018-09-02T16:00:27.176Z,102321.00
2018-09-02T16:02:54.136Z,102321.62
2018-09-02T16:05:21.421Z,102323.23
2018-09-02T16:07:48.358Z,102321.98
2018-09-02T16:10:15.321Z,102315.52
2018-09-02T16:12:42.240Z,102309.14
2018-09-02T16:15:09.152Z,102307.27
2018-09-02T16:17:36.100Z,102305.73
2018-09-02T16:20:03.162Z,102303.89
2018-09-02T16:22:30.000Z,102261.39
2018-09-02T16:24:56.921Z,102308.65
2018-09-02T16:27:23.808Z,102309.11
2018-09-02T16:29:51.010Z,102305.89
2018-09-02T16:32:17.906Z,102308.05
2018-09-02T16:34:44.867Z,102299.80
2018-09-02T16:37:11.832Z,102300.39
2018-09-02T16:39:39.050Z,102298.56
2018-09-02T16:42:06.087Z,102293.41
2018-09-02T16:44:33.230Z,102299.66
2018-09-02T16:47:00.164Z,102291.13
2018-09-02T16:49:27.068Z,102299.03
2018-09-02T16:51:53.989Z,102288.52
2018-09-02T16:54:21.005Z,102292.95
2018-09-02T16:56:47.883Z,102287.77
2018-09-02T16:59:14.825Z,102284.86
2018-09-02T17:01:41.705Z,102281.36
2018-09-02T17:04:09.077Z,102281.88
2018-09-02T17:06:36.061Z,102278.38
2018-09-02T17:09:04.759Z,102275.39
2018-09-02T17:11:38.966Z,102274.27
2018-09-02T17:14:06.049Z,102276.94
2018-09-02T17:16:32.948Z,102272.38
2018-09-02T17:19:05.848Z,102268.95
2018-09-02T17:21:32.777Z,102270.38
2018-09-02T17:24:00.601Z,102271.61
2018-09-02T17:26:27.504Z,102268.38
2018-09-02T17:28:54.396Z,102270.44
2018-09-02T17:31:21.295Z,102268.06
2018-09-02T17:33:48.238Z,102267.57
2018-09-02T17:36:15.101Z,102269.62
2018-09-02T17:38:41.988Z,102265.36
2018-09-02T17:41:08.881Z,102256.95
2018-09-02T17:43:35.776Z,102255.12
2018-09-02T17:46:02.688Z,102262.84
2018-09-02T17:48:29.584Z,102264.88
2018-09-02T17:50:56.477Z,102269.35
2018-09-02T17:53:23.436Z,102267.05
2018-09-02T17:55:50.352Z,102266.78
2018-09-02T17:58:17.284Z,102265.42
2018-09-02T18:00:48.075Z,102267.22
2018-09-02T18:03:14.985Z,102264.52
2018-09-02T18:05:41.879Z,102261.08
2018-09-02T18:08:09.243Z,102261.66
2018-09-02T18:10:37.405Z,102267.25
2018-09-02T18:13:04.807Z,102269.36
2018-09-02T18:15:31.746Z,102277.28
2018-09-02T18:17:58.662Z,102274.06
2018-09-02T18:20:25.589Z,102271.24
2018-09-02T18:22:52.475Z,102268.62
2018-09-02T18:25:19.366Z,102270.55
2018-09-02T18:27:49.268Z,102273.91
2018-09-02T18:30:16.180Z,102275.93
2018-09-02T18:32:43.060Z,102277.44
2018-09-02T18:35:09.966Z,102289.22
2018-09-02T18:37:36.863Z,102291.55
2018-09-02T18:40:04.693Z,102294.93
2018-09-02T18:42:31.587Z,102296.72
2018-09-02T18:44:58.491Z,102294.09
2018-09-02T18:47:25.389Z,102290.09
2018-09-02T18:49:52.265Z,102291.88
2018-09-02T18:52:19.194Z,102285.23
2018-09-02T18:54:46.064Z,102287.25
2018-09-02T18:57:13.026Z,102287.80
2018-09-02T18:59:40.006Z,102292.84
2018-09-02T19:02:08.105Z,102297.78
2018-09-02T19:04:34.992Z,102296.63
2018-09-02T19:07:01.876Z,102297.78
2018-09-02T19:09:28.756Z,102287.26
2018-09-02T19:11:55.652Z,102290.75
2018-09-02T19:14:22.796Z,102291.04
2018-09-02T19:16:49.689Z,102287.06
2018-09-02T19:19:16.570Z,102295.14
2018-09-02T19:21:43.448Z,102288.11
2018-09-02T19:24:10.363Z,102283.78
2018-09-02T19:26:37.293Z,102289.16
2018-09-02T19:29:04.296Z,102288.62
2018-09-02T19:31:31.234Z,102289.48
2018-09-02T19:33:58.200Z,102291.57
2018-09-02T19:36:25.114Z,102286.84
2018-09-02T19:38:52.488Z,102285.69
2018-09-02T19:41:19.417Z,102293.03
2018-09-02T19:43:46.401Z,102281.37
2018-09-02T19:46:13.341Z,102282.63
2018-09-02T19:48:40.289Z,102285.88
2018-09-02T19:51:07.309Z,102281.36
2018-09-02T19:53:34.336Z,102283.05
2018-09-02T19:56:01.261Z,102277.16
2018-09-02T19:58:28.193Z,102283.89
2018-09-02T20:00:55.128Z,102278.30
2018-09-02T20:03:22.076Z,102273.80
2018-09-02T20:05:49.009Z,102271.16
2018-09-02T20:08:15.950Z,102266.00
2018-09-02T20:10:42.849Z,102259.94
2018-09-02T20:13:09.785Z,102265.48
2018-09-02T20:15:36.740Z,102259.48
2018-09-02T20:18:03.730Z,102263.48
2018-09-02T20:20:30.650Z,102262.52
2018-09-02T20:22:57.582Z,102259.44
2018-09-02T20:25:24.508Z,102263.75
2018-09-02T20:27:51.444Z,102255.24
2018-09-02T20:30:18.377Z,102257.88
2018-09-02T20:32:45.349Z,102256.19
2018-09-02T20:35:12.265Z,102256.91
2018-09-02T20:37:39.193Z,102260.91
2018-09-02T20:40:06.395Z,102252.59
2018-09-02T20:42:33.304Z,102253.03
2018-09-02T20:45:00.240Z,102254.59
2018-09-02T20:47:27.176Z,102253.55
2018-09-02T20:49:54.112Z,102249.53
2018-09-02T20:52:21.025Z,102247.02
2018-09-02T20:54:47.988Z,102252.36
2018-09-02T20:57:14.949Z,102244.34
2018-09-02T20:59:41.882Z,102240.89
2018-09-02T21:02:08.780Z,102239.84
2018-09-02T21:04:35.751Z,102234.20
2018-09-02T21:07:02.676Z,102233.87
2018-09-02T21:09:29.624Z,102237.33
2018-09-02T21:11:56.577Z,102240.78
2018-09-02T21:14:23.485Z,102235.55
2018-09-02T21:16:50.426Z,102242.23
2018-09-02T21:19:17.372Z,102235.22
2018-09-02T21:21:44.280Z,102236.59
2018-09-02T21:24:11.203Z,102231.94
2018-09-02T21:26:38.087Z,102226.05
2018-09-02T21:29:05.012Z,102227.61
2018-09-02T21:31:31.925Z,102226.86
2018-09-02T21:33:58.824Z,102221.53
2018-09-02T21:36:25.731Z,102226.13
2018-09-02T21:38:52.728Z,102226.78
2018-09-02T21:41:19.625Z,102222.66
2018-09-02T21:43:46.529Z,102217.15
2018-09-02T21:46:13.420Z,102233.86
2018-09-02T21:48:40.314Z,102230.92
2018-09-02T21:51:07.223Z,102234.27
2018-09-02T21:53:34.161Z,102238.03
2018-09-02T21:56:01.049Z,102240.58
2018-09-02T21:58:27.994Z,102240.36
2018-09-02T22:00:54.892Z,102235.30
2018-09-02T22:03:21.798Z,102234.05
2018-09-02T22:05:48.704Z,102233.80
2018-09-02T22:08:15.619Z,102230.83
2018-09-02T22:10:42.520Z,102226.84
2018-09-02T22:13:09.424Z,102228.09
2018-09-02T22:15:36.300Z,102226.31
2018-09-02T22:18:03.435Z,102223.40
2018-09-02T22:20:30.319Z,102224.87
2018-09-02T22:22:57.209Z,102224.33
2018-09-02T22:25:24.149Z,102223.30
2018-09-02T22:27:50.989Z,102219.20
2018-09-02T22:30:17.882Z,102212.39
2018-09-02T22:32:44.777Z,102213.11
2018-09-02T22:35:11.671Z,102210.59
2018-09-02T22:37:38.571Z,102213.11
2018-09-02T22:40:05.597Z,102206.72
2018-09-02T22:42:32.477Z,102207.12
2018-09-02T22:44:59.377Z,102201.74
2018-09-02T22:47:26.293Z,102203.75
2018-09-02T22:49:53.200Z,102198.94
2018-09-02T22:52:20.085Z,102201.27
2018-09-02T22:54:46.989Z,102198.14
2018-09-02T22:57:13.897Z,102196.37
2018-09-02T22:59:40.801Z,102193.36
2018-09-02T23:02:07.979Z,102194.00
2018-09-02T23:04:34.872Z,102191.91
2018-09-02T23:07:01.758Z,102185.20
2018-09-02T23:09:28.664Z,102181.75
2018-09-02T23:11:55.570Z,102177.76
2018-09-02T23:14:22.451Z,102170.33
2018-09-02T23:16:49.363Z,102174.95
2018-09-02T23:19:16.280Z,102169.71
2018-09-02T23:21:43.165Z,102169.28
2018-09-02T23:24:10.119Z,102167.91
2018-09-02T23:26:37.015Z,102162.59
2018-09-02T23:29:04.236Z,102162.91
2018-09-02T23:31:31.124Z,102158.50
2018-09-02T23:33:58.039Z,102150.64
2018-09-02T23:36:24.925Z,102157.02
2018-09-02T23:38:51.821Z,102147.59
2018-09-02T23:41:18.724Z,102147.59
2018-09-02T23:43:45.601Z,102146.02
2018-09-02T23:46:12.521Z,102142.24
2018-09-02T23:48:39.420Z,102138.56
2018-09-02T23:51:06.325Z,102139.92
2018-09-02T23:53:33.214Z,102135.20
2018-09-02T23:56:00.113Z,102131.33
2018-09-02T23:58:27.015Z,102129.02
